createdAt,value
2019-02-02T00:01:53.060Z,95505.32
2019-02-02T00:04:22.548Z,95501.91
2019-02-02T00:06:52.151Z,95486.67
2019-02-02T00:09:21.565Z,95495.27
2019-02-02T00:11:51.055Z,95503.11
2019-02-02T00:14:20.490Z,95508.28
2019-02-02T00:16:50.101Z,95496.34
2019-02-02T00:19:19.508Z,95497.83
2019-02-02T00:21:48.894Z,95501.55
2019-02-02T00:24:18.477Z,95506.10
2019-02-02T00:26:47.840Z,95511.57
2019-02-02T00:29:17.219Z,95502.48
2019-02-02T00:31:46.647Z,95498.84
2019-02-02T00:34:16.022Z,95503.83
2019-02-02T00:36:45.453Z,95509.55
2019-02-02T00:39:14.836Z,95511.17
2019-02-02T00:41:44.334Z,95505.02
2019-02-02T00:44:14.108Z,95508.50
2019-02-02T00:46:43.630Z,95512.09
2019-02-02T00:49:13.141Z,95507.53
2019-02-02T00:51:42.537Z,95509.03
2019-02-02T00:54:11.999Z,95512.31
2019-02-02T00:56:41.462Z,95511.34
2019-02-02T00:59:10.886Z,95502.30
2019-02-02T01:01:40.330Z,95500.04
2019-02-02T01:04:10.487Z,95488.42
2019-02-02T01:06:40.176Z,95495.89
2019-02-02T01:09:25.843Z,95506.18
2019-02-02T01:11:55.443Z,95513.77
2019-02-02T01:14:24.920Z,95503.85
2019-02-02T01:16:54.673Z,95495.51
2019-02-02T01:19:24.054Z,95500.20
2019-02-02T01:21:53.462Z,95487.51
2019-02-02T01:24:22.974Z,95475.96
2019-02-02T01:26:52.451Z,95475.02
2019-02-02T01:29:21.841Z,95484.07
2019-02-02T01:31:51.289Z,95480.53
2019-02-02T01:34:20.812Z,95474.03
2019-02-02T01:36:50.235Z,95470.42
2019-02-02T01:39:19.664Z,95479.36
2019-02-02T01:41:49.037Z,95480.23
2019-02-02T01:44:18.548Z,95465.22
2019-02-02T01:46:47.940Z,95479.34
2019-02-02T01:49:17.442Z,95487.09
2019-02-02T01:51:46.870Z,95498.86
2019-02-02T01:54:16.281Z,95493.25
2019-02-02T01:56:45.881Z,95498.77
2019-02-02T01:59:15.412Z,95513.75
2019-02-02T02:01:44.997Z,95517.03
2019-02-02T02:04:14.413Z,95511.02
2019-02-02T02:06:43.955Z,95515.70
2019-02-02T02:09:13.409Z,95523.45
2019-02-02T02:11:42.809Z,95516.71
2019-02-02T02:14:12.232Z,95532.52
2019-02-02T02:16:41.928Z,95534.87
2019-02-02T02:19:11.461Z,95535.22
2019-02-02T02:21:40.875Z,95524.55
2019-02-02T02:24:10.344Z,95509.16
2019-02-02T02:26:39.863Z,95485.17
2019-02-02T02:29:09.337Z,95483.38
2019-02-02T02:31:38.755Z,95497.58
2019-02-02T02:34:08.148Z,95497.09
2019-02-02T02:36:37.523Z,95495.67
2019-02-02T02:39:09.464Z,95485.36
2019-02-02T02:41:38.849Z,95470.34
2019-02-02T02:44:08.353Z,95466.79
2019-02-02T02:46:37.739Z,95471.02
2019-02-02T02:49:07.125Z,95470.62
2019-02-02T02:51:36.654Z,95463.01
2019-02-02T02:54:06.804Z,95472.28
2019-02-02T02:56:36.487Z,95485.16
2019-02-02T02:59:06.140Z,95492.66
2019-02-02T03:01:35.604Z,95479.05
2019-02-02T03:04:05.236Z,95468.25
2019-02-02T03:06:34.635Z,95476.25
2019-02-02T03:09:06.779Z,95475.77
2019-02-02T03:11:36.195Z,95475.48
2019-02-02T03:14:05.716Z,95452.17
2019-02-02T03:16:35.098Z,95449.86
2019-02-02T03:19:04.522Z,95446.09
2019-02-02T03:21:33.977Z,95451.07
2019-02-02T03:24:03.427Z,95464.77
2019-02-02T03:26:32.843Z,95480.54
2019-02-02T03:29:02.243Z,95488.47
2019-02-02T03:31:31.760Z,95481.34
2019-02-02T03:34:01.154Z,95475.78
2019-02-02T03:36:30.619Z,95497.28
2019-02-02T03:39:00.019Z,95496.26
2019-02-02T03:41:29.501Z,95500.43
2019-02-02T03:43:58.939Z,95505.27
2019-02-02T03:46:28.421Z,95519.64
2019-02-02T03:48:57.840Z,95534.36
2019-02-02T03:51:27.315Z,95535.63
2019-02-02T03:54:08.208Z,95543.92
2019-02-02T03:56:27.823Z,95521.20
2019-02-02T03:59:05.923Z,95511.94
2019-02-02T04:01:30.221Z,95518.28
2019-02-02T04:03:59.867Z,95525.12
2019-02-02T04:06:29.223Z,95516.02
2019-02-02T04:08:58.637Z,95516.98
2019-02-02T04:11:28.028Z,95529.27
2019-02-02T04:13:57.436Z,95549.80
2019-02-02T04:16:26.819Z,95554.81
2019-02-02T04:18:56.510Z,95561.55
2019-02-02T04:21:26.032Z,95572.36
2019-02-02T04:23:55.496Z,95563.27
2019-02-02T04:26:25.044Z,95549.37
2019-02-02T04:28:54.794Z,95548.05
2019-02-02T04:31:24.307Z,95531.52
2019-02-02T04:33:53.809Z,95540.60
2019-02-02T04:36:23.277Z,95538.58
2019-02-02T04:38:52.796Z,95537.66
2019-02-02T04:41:22.211Z,95536.39
2019-02-02T04:43:51.630Z,95544.70
2019-02-02T04:46:21.023Z,95550.35
2019-02-02T04:48:50.439Z,95548.88
2019-02-02T04:51:19.960Z,95561.42
2019-02-02T04:53:49.484Z,95560.64
2019-02-02T04:56:18.997Z,95567.30
2019-02-02T04:58:48.421Z,95557.11
2019-02-02T05:01:17.970Z,95552.15
2019-02-02T05:03:47.387Z,95556.78
2019-02-02T05:06:16.797Z,95541.58
2019-02-02T05:08:46.170Z,95541.20
2019-02-02T05:11:15.857Z,95550.30
2019-02-02T05:13:45.247Z,95572.78
2019-02-02T05:16:14.683Z,95583.91
2019-02-02T05:18:44.093Z,95589.42
2019-02-02T05:21:13.496Z,95600.64
2019-02-02T05:23:42.942Z,95598.89
2019-02-02T05:26:12.359Z,95597.27
2019-02-02T05:28:41.835Z,95583.39
2019-02-02T05:31:11.272Z,95588.64
2019-02-02T05:33:40.721Z,95577.80
2019-02-02T05:36:10.126Z,95582.20
2019-02-02T05:38:39.719Z,95580.72
2019-02-02T05:41:09.152Z,95580.55
2019-02-02T05:43:38.535Z,95584.14
2019-02-02T05:46:07.935Z,95592.91
2019-02-02T05:48:37.331Z,95607.78
2019-02-02T05:51:06.763Z,95614.22
2019-02-02T05:53:36.142Z,95624.16
2019-02-02T05:56:05.984Z,95642.98
2019-02-02T05:58:35.418Z,95635.94
2019-02-02T06:01:05.942Z,95618.43
2019-02-02T06:03:35.375Z,95601.51
2019-02-02T06:06:04.759Z,95612.31
2019-02-02T06:08:34.286Z,95621.51
2019-02-02T06:11:03.697Z,95620.17
2019-02-02T06:13:33.197Z,95603.07
2019-02-02T06:16:02.578Z,95604.41
2019-02-02T06:18:32.172Z,95617.41
2019-02-02T06:21:01.581Z,95611.91
2019-02-02T06:23:30.963Z,95607.44
2019-02-02T06:26:00.376Z,95614.43
2019-02-02T06:28:29.826Z,95614.51
2019-02-02T06:31:00.223Z,95617.73
2019-02-02T06:33:29.683Z,95609.88
2019-02-02T06:35:59.130Z,95609.64
2019-02-02T06:38:28.609Z,95617.41
2019-02-02T06:40:58.148Z,95631.34
2019-02-02T06:43:30.287Z,95656.39
2019-02-02T06:45:58.758Z,95647.97
2019-02-02T06:48:28.123Z,95653.00
2019-02-02T06:50:57.531Z,95655.06
2019-02-02T06:53:26.940Z,95665.33
2019-02-02T06:55:56.318Z,95664.86
2019-02-02T06:58:25.831Z,95676.22
2019-02-02T07:00:55.353Z,95694.32
2019-02-02T07:03:24.775Z,95707.05
2019-02-02T07:05:54.141Z,95709.22
2019-02-02T07:08:23.551Z,95710.28
2019-02-02T07:10:52.919Z,95705.05
2019-02-02T07:13:22.290Z,95707.45
2019-02-02T07:15:51.755Z,95711.75
2019-02-02T07:18:21.147Z,95715.78
2019-02-02T07:20:50.632Z,95723.40
2019-02-02T07:23:20.019Z,95717.34
2019-02-02T07:25:49.468Z,95710.30
2019-02-02T07:28:18.872Z,95713.61
2019-02-02T07:30:48.389Z,95705.21
2019-02-02T07:33:17.858Z,95717.06
2019-02-02T07:35:47.253Z,95727.06
2019-02-02T07:38:16.655Z,95734.88
2019-02-02T07:40:46.378Z,95745.80
2019-02-02T07:43:15.778Z,95754.28
2019-02-02T07:45:45.228Z,95753.73
2019-02-02T07:48:14.598Z,95751.08
2019-02-02T07:50:44.044Z,95751.92
2019-02-02T07:53:13.514Z,95747.69
2019-02-02T07:55:42.980Z,95743.00
2019-02-02T07:58:12.510Z,95767.55
2019-02-02T08:00:41.911Z,95786.11
2019-02-02T08:03:12.822Z,95800.38
2019-02-02T08:05:42.195Z,95783.13
2019-02-02T08:08:11.637Z,95779.45
2019-02-02T08:10:41.011Z,95789.16
2019-02-02T08:13:10.502Z,95793.13
2019-02-02T08:15:40.036Z,95788.09
2019-02-02T08:18:09.427Z,95795.00
2019-02-02T08:20:38.826Z,95794.53
2019-02-02T08:23:08.216Z,95794.39
2019-02-02T08:25:37.618Z,95794.52
2019-02-02T08:28:08.197Z,95791.33
2019-02-02T08:30:37.684Z,95773.23
2019-02-02T08:33:07.851Z,95774.39
2019-02-02T08:35:37.372Z,95774.46
2019-02-02T08:38:06.958Z,95785.19
2019-02-02T08:40:36.459Z,95787.34
2019-02-02T08:43:05.847Z,95805.66
2019-02-02T08:45:35.241Z,95814.52
2019-02-02T08:48:04.865Z,95818.48
2019-02-02T08:50:36.815Z,95830.39
2019-02-02T08:53:06.537Z,95838.47
2019-02-02T08:55:35.956Z,95838.06
2019-02-02T08:58:05.824Z,95833.22
2019-02-02T09:00:35.502Z,95843.10
2019-02-02T09:03:05.279Z,95852.59
2019-02-02T09:05:34.707Z,95857.05
2019-02-02T09:08:04.199Z,95859.42
2019-02-02T09:10:33.635Z,95865.14
2019-02-02T09:13:03.130Z,95871.11
2019-02-02T09:15:32.510Z,95875.73
2019-02-02T09:18:01.955Z,95867.06
2019-02-02T09:20:31.431Z,95866.52
2019-02-02T09:23:06.235Z,95856.48
2019-02-02T09:25:32.263Z,95873.22
2019-02-02T09:28:03.378Z,95883.25
2019-02-02T09:30:35.212Z,95889.38
2019-02-02T09:33:05.185Z,95898.17
2019-02-02T09:35:34.583Z,95902.59
2019-02-02T09:38:04.071Z,95913.05
2019-02-02T09:40:33.491Z,95915.86
2019-02-02T09:43:02.900Z,95917.48
2019-02-02T09:45:32.312Z,95927.95
2019-02-02T09:48:03.361Z,95918.72
2019-02-02T09:50:33.153Z,95913.48
2019-02-02T09:53:02.562Z,95926.47
2019-02-02T09:55:31.943Z,95933.45
2019-02-02T09:58:04.943Z,95940.63
2019-02-02T10:00:34.340Z,95940.86
2019-02-02T10:03:03.763Z,95933.28
2019-02-02T10:05:33.252Z,95934.28
2019-02-02T10:08:02.775Z,95947.91
2019-02-02T10:10:34.095Z,95951.88
2019-02-02T10:13:05.385Z,95959.13
2019-02-02T10:15:34.813Z,95961.13
2019-02-02T10:18:05.296Z,95964.42
2019-02-02T10:20:34.753Z,95966.30
2019-02-02T10:23:04.667Z,95971.88
2019-02-02T10:25:34.059Z,95965.19
2019-02-02T10:28:03.433Z,95961.91
2019-02-02T10:30:43.895Z,95958.17
2019-02-02T10:33:14.663Z,95966.47
2019-02-02T10:35:44.474Z,95963.63
2019-02-02T10:38:13.899Z,95961.16
2019-02-02T10:40:43.292Z,95968.64
2019-02-02T10:43:12.996Z,95966.70
2019-02-02T10:45:42.381Z,95959.55
2019-02-02T10:48:11.779Z,95966.25
2019-02-02T10:50:41.165Z,95969.29
2019-02-02T10:53:10.699Z,95960.66
2019-02-02T10:55:40.251Z,95966.47
2019-02-02T10:58:09.761Z,95969.75
2019-02-02T11:00:40.893Z,95973.59
2019-02-02T11:03:10.543Z,95976.27
2019-02-02T11:05:40.024Z,95975.41
2019-02-02T11:08:09.587Z,95974.73
2019-02-02T11:10:39.048Z,95989.47
2019-02-02T11:13:09.106Z,95983.99
2019-02-02T11:15:38.893Z,95978.59
2019-02-02T11:18:08.886Z,95978.86
2019-02-02T11:20:38.388Z,95980.44
2019-02-02T11:23:07.839Z,95977.18
2019-02-02T11:25:37.432Z,95982.59
2019-02-02T11:28:07.079Z,95986.30
2019-02-02T11:30:37.017Z,95998.59
2019-02-02T11:33:06.413Z,96002.58
2019-02-02T11:35:35.917Z,96007.95
2019-02-02T11:38:05.447Z,96006.92
2019-02-02T11:40:35.412Z,96002.58
2019-02-02T11:43:05.251Z,96008.95
2019-02-02T11:45:34.654Z,96010.39
2019-02-02T11:48:04.530Z,96009.27
2019-02-02T11:50:34.155Z,96006.69
2019-02-02T11:53:03.560Z,96013.74
2019-02-02T11:55:32.977Z,96010.74
2019-02-02T11:58:02.367Z,96020.13
2019-02-02T12:00:40.137Z,96020.91
2019-02-02T12:03:09.610Z,96020.66
2019-02-02T12:05:39.007Z,96024.34
2019-02-02T12:08:08.670Z,96018.73
2019-02-02T12:10:38.045Z,96008.91
2019-02-02T12:13:07.564Z,96013.04
2019-02-02T12:15:36.966Z,96016.05
2019-02-02T12:18:06.561Z,96010.20
2019-02-02T12:20:35.998Z,96015.77
2019-02-02T12:23:05.727Z,96023.80
2019-02-02T12:25:35.136Z,96015.84
2019-02-02T12:28:05.024Z,96032.94
2019-02-02T12:30:35.664Z,96036.49
2019-02-02T12:33:06.138Z,96048.36
2019-02-02T12:35:35.672Z,96041.13
2019-02-02T12:38:05.293Z,96046.61
2019-02-02T12:40:34.782Z,96054.05
2019-02-02T12:43:04.594Z,96049.94
2019-02-02T12:45:49.319Z,96043.25
2019-02-02T12:48:18.787Z,96051.16
2019-02-02T12:50:48.285Z,96060.41
2019-02-02T12:53:18.029Z,96057.19
2019-02-02T12:55:47.421Z,96061.03
2019-02-02T12:58:16.818Z,96061.20
2019-02-02T13:00:46.526Z,96056.62
2019-02-02T13:03:15.946Z,96054.50
2019-02-02T13:05:45.434Z,96056.86
2019-02-02T13:08:14.861Z,96047.69
2019-02-02T13:10:44.298Z,96058.75
2019-02-02T13:13:13.791Z,96064.05
2019-02-02T13:15:43.177Z,96064.89
2019-02-02T13:18:12.596Z,96073.00
2019-02-02T13:20:42.005Z,96073.69
2019-02-02T13:23:11.471Z,96080.70
2019-02-02T13:25:41.046Z,96079.98
2019-02-02T13:28:10.580Z,96089.55
2019-02-02T13:30:40.206Z,96096.52
2019-02-02T13:33:09.573Z,96095.16
2019-02-02T13:35:41.732Z,96094.39
2019-02-02T13:38:11.221Z,96090.31
2019-02-02T13:40:40.711Z,96087.73
2019-02-02T13:43:10.203Z,96090.64
2019-02-02T13:45:39.639Z,96089.61
2019-02-02T13:48:09.040Z,96100.88
2019-02-02T13:50:38.469Z,96102.81
2019-02-02T13:53:09.515Z,96113.83
2019-02-02T13:55:39.897Z,96120.17
2019-02-02T13:58:09.824Z,96131.16
2019-02-02T14:00:39.306Z,96125.38
2019-02-02T14:03:08.723Z,96127.39
2019-02-02T14:05:38.776Z,96126.16
2019-02-02T14:08:08.185Z,96127.58
2019-02-02T14:10:37.829Z,96139.45
2019-02-02T14:13:07.230Z,96142.52
2019-02-02T14:15:39.139Z,96140.38
2019-02-02T14:18:07.906Z,96144.17
2019-02-02T14:20:37.310Z,96148.14
2019-02-02T14:23:07.006Z,96159.47
2019-02-02T14:25:36.397Z,96162.30
2019-02-02T14:28:06.145Z,96164.19
2019-02-02T14:30:35.631Z,96167.59
2019-02-02T14:33:13.728Z,96177.77
2019-02-02T14:35:36.520Z,96168.98
2019-02-02T14:38:06.021Z,96163.89
2019-02-02T14:40:35.555Z,96163.27
2019-02-02T14:43:05.143Z,96164.63
2019-02-02T14:45:34.835Z,96178.00
2019-02-02T14:48:05.903Z,96180.29
2019-02-02T14:50:35.293Z,96186.88
2019-02-02T14:53:05.226Z,96202.86
2019-02-02T14:55:34.709Z,96213.58
2019-02-02T14:58:04.849Z,96220.67
2019-02-02T15:00:34.669Z,96226.73
2019-02-02T15:03:04.495Z,96221.53
2019-02-02T15:05:42.573Z,96211.05
2019-02-02T15:08:05.075Z,96211.53
2019-02-02T15:10:34.505Z,96216.25
2019-02-02T15:13:03.895Z,96229.77
2019-02-02T15:15:33.381Z,96232.95
2019-02-02T15:18:02.786Z,96230.86
2019-02-02T15:20:34.666Z,96224.40
2019-02-02T15:23:04.707Z,96227.93
2019-02-02T15:25:34.110Z,96228.25
2019-02-02T15:28:03.506Z,96228.05
2019-02-02T15:30:33.307Z,96232.14
2019-02-02T15:33:02.711Z,96230.42
2019-02-02T15:35:32.341Z,96221.36
2019-02-02T15:38:03.102Z,96222.33
2019-02-02T15:40:32.573Z,96226.19
2019-02-02T15:43:01.961Z,96239.03
2019-02-02T15:45:31.808Z,96238.25
2019-02-02T15:48:01.388Z,96241.48
2019-02-02T15:50:30.778Z,96239.72
2019-02-02T15:53:00.331Z,96244.27
2019-02-02T15:55:29.822Z,96238.69
2019-02-02T15:57:59.194Z,96244.17
2019-02-02T16:00:33.439Z,96243.09
2019-02-02T16:03:02.827Z,96240.78
2019-02-02T16:05:32.559Z,96243.09
2019-02-02T16:08:03.583Z,96248.89
2019-02-02T16:10:33.557Z,96252.30
2019-02-02T16:13:03.475Z,96250.39
2019-02-02T16:15:34.218Z,96260.37
2019-02-02T16:18:04.471Z,96256.32
2019-02-02T16:20:36.411Z,96263.88
2019-02-02T16:23:06.788Z,96267.14
2019-02-02T16:25:36.363Z,96269.15
2019-02-02T16:28:06.215Z,96259.45
2019-02-02T16:30:35.638Z,96265.35
2019-02-02T16:33:05.599Z,96272.84
2019-02-02T16:35:35.016Z,96276.50
2019-02-02T16:38:04.728Z,96280.75
2019-02-02T16:40:34.155Z,96281.42
2019-02-02T16:43:03.699Z,96284.78
2019-02-02T16:45:33.118Z,96298.06
2019-02-02T16:48:02.622Z,96302.15
2019-02-02T16:50:32.134Z,96307.23
2019-02-02T16:53:01.577Z,96303.61
2019-02-02T16:55:31.166Z,96309.26
2019-02-02T16:58:00.852Z,96323.03
2019-02-02T17:00:32.303Z,96328.00
2019-02-02T17:03:01.972Z,96335.43
2019-02-02T17:05:31.385Z,96343.20
2019-02-02T17:08:03.070Z,96356.45
2019-02-02T17:10:34.861Z,96354.28
2019-02-02T17:13:04.810Z,96352.00
2019-02-02T17:15:34.207Z,96363.92
2019-02-02T17:18:03.933Z,96371.50
2019-02-02T17:20:35.653Z,96373.46
2019-02-02T17:23:05.527Z,96379.20
2019-02-02T17:25:35.069Z,96391.72
2019-02-02T17:28:06.172Z,96391.63
2019-02-02T17:30:35.823Z,96387.63
2019-02-02T17:33:08.573Z,96388.07
2019-02-02T17:35:38.233Z,96391.27
2019-02-02T17:38:07.729Z,96392.66
2019-02-02T17:40:37.543Z,96393.28
2019-02-02T17:43:07.103Z,96393.80
2019-02-02T17:45:36.500Z,96407.55
2019-02-02T17:48:06.997Z,96415.27
2019-02-02T17:50:36.397Z,96419.27
2019-02-02T17:53:06.013Z,96421.41
2019-02-02T17:55:35.536Z,96431.24
2019-02-02T17:58:08.265Z,96439.03
2019-02-02T18:00:45.980Z,96440.48
2019-02-02T18:03:15.424Z,96447.42
2019-02-02T18:05:44.815Z,96453.70
2019-02-02T18:08:14.215Z,96454.19
2019-02-02T18:10:43.690Z,96449.37
2019-02-02T18:13:13.097Z,96447.31
2019-02-02T18:15:42.555Z,96456.13
2019-02-02T18:18:11.950Z,96450.21
2019-02-02T18:20:41.351Z,96455.50
2019-02-02T18:23:10.769Z,96459.69
2019-02-02T18:25:40.245Z,96464.52
2019-02-02T18:28:09.693Z,96461.94
2019-02-02T18:30:39.098Z,96463.22
2019-02-02T18:33:08.664Z,96465.92
2019-02-02T18:35:38.101Z,96474.55
2019-02-02T18:38:07.541Z,96475.45
2019-02-02T18:40:39.887Z,96477.92
2019-02-02T18:43:08.304Z,96479.39
2019-02-02T18:45:37.732Z,96481.21
2019-02-02T18:48:07.976Z,96484.44
2019-02-02T18:50:37.418Z,96483.09
2019-02-02T18:53:07.055Z,96482.72
2019-02-02T18:55:49.040Z,96483.10
2019-02-02T18:58:18.610Z,96492.70
2019-02-02T19:00:48.068Z,96496.78
2019-02-02T19:03:18.909Z,96507.95
2019-02-02T19:05:48.601Z,96508.44
2019-02-02T19:08:18.101Z,96513.30
2019-02-02T19:10:47.490Z,96510.63
2019-02-02T19:13:17.074Z,96518.72
2019-02-02T19:15:46.504Z,96526.75
2019-02-02T19:18:15.942Z,96519.91
2019-02-02T19:20:45.481Z,96517.80
2019-02-02T19:23:24.705Z,96524.77
2019-02-02T19:25:46.172Z,96525.16
2019-02-02T19:28:15.821Z,96521.15
2019-02-02T19:30:45.229Z,96513.52
2019-02-02T19:33:16.586Z,96519.59
2019-02-02T19:35:45.992Z,96527.03
2019-02-02T19:38:15.844Z,96525.57
2019-02-02T19:40:45.479Z,96516.59
2019-02-02T19:43:14.922Z,96517.92
2019-02-02T19:45:44.391Z,96529.55
2019-02-02T19:48:13.787Z,96545.97
2019-02-02T19:50:43.269Z,96555.62
2019-02-02T19:53:12.734Z,96551.95
2019-02-02T19:55:42.167Z,96562.70
2019-02-02T19:58:11.759Z,96567.25
2019-02-02T20:00:41.214Z,96563.41
2019-02-02T20:03:10.624Z,96559.73
2019-02-02T20:05:40.589Z,96568.05
2019-02-02T20:08:10.011Z,96566.16
2019-02-02T20:10:39.479Z,96579.66
2019-02-02T20:13:08.897Z,96591.80
2019-02-02T20:15:38.424Z,96590.84
2019-02-02T20:18:10.279Z,96590.50
2019-02-02T20:20:39.190Z,96593.45
2019-02-02T20:23:08.654Z,96596.25
2019-02-02T20:25:38.106Z,96595.67
2019-02-02T20:28:07.838Z,96590.02
2019-02-02T20:30:37.322Z,96578.70
2019-02-02T20:33:07.021Z,96574.93
2019-02-02T20:35:42.106Z,96566.85
2019-02-02T20:38:08.620Z,96585.14
2019-02-02T20:40:38.047Z,96591.31
2019-02-02T20:43:07.457Z,96576.75
2019-02-02T20:45:37.565Z,96576.55
2019-02-02T20:48:07.331Z,96590.34
2019-02-02T20:50:36.739Z,96594.58
2019-02-02T20:53:06.271Z,96588.88
2019-02-02T20:55:38.582Z,96611.51
2019-02-02T20:58:08.162Z,96613.00
2019-02-02T21:00:38.212Z,96598.94
2019-02-02T21:03:08.030Z,96611.51
2019-02-02T21:05:37.609Z,96628.59
2019-02-02T21:08:07.548Z,96631.62
2019-02-02T21:10:36.927Z,96622.00
2019-02-02T21:13:06.537Z,96627.41
2019-02-02T21:15:35.975Z,96631.30
2019-02-02T21:18:05.886Z,96636.50
2019-02-02T21:20:35.620Z,96643.14
2019-02-02T21:23:05.302Z,96644.59
2019-02-02T21:25:34.918Z,96653.95
2019-02-02T21:28:07.151Z,96665.13
2019-02-02T21:30:36.817Z,96677.21
2019-02-02T21:33:07.024Z,96675.69
2019-02-02T21:35:36.572Z,96671.86
2019-02-02T21:38:06.795Z,96677.76
2019-02-02T21:40:36.608Z,96681.27
2019-02-02T21:43:08.131Z,96689.50
2019-02-02T21:45:38.607Z,96696.68
2019-02-02T21:48:08.039Z,96708.17
2019-02-02T21:50:37.432Z,96712.12
2019-02-02T21:53:07.014Z,96714.47
2019-02-02T21:55:36.431Z,96716.09
2019-02-02T21:58:06.121Z,96715.98
2019-02-02T22:00:38.165Z,96721.04
2019-02-02T22:03:08.222Z,96728.16
2019-02-02T22:05:37.632Z,96725.13
2019-02-02T22:08:08.464Z,96723.95
2019-02-02T22:10:38.384Z,96716.09
2019-02-02T22:13:08.591Z,96718.31
2019-02-02T22:15:38.568Z,96709.17
2019-02-02T22:18:07.988Z,96707.67
2019-02-02T22:20:37.654Z,96716.45
2019-02-02T22:23:07.085Z,96714.87
2019-02-02T22:25:36.673Z,96718.36
2019-02-02T22:28:06.312Z,96722.54
2019-02-02T22:30:37.123Z,96717.63
2019-02-02T22:33:06.994Z,96711.08
2019-02-02T22:35:36.511Z,96700.89
2019-02-02T22:38:06.131Z,96705.58
2019-02-02T22:40:35.598Z,96705.84
2019-02-02T22:43:05.669Z,96711.24
2019-02-02T22:45:35.095Z,96709.00
2019-02-02T22:48:07.655Z,96712.58
2019-02-02T22:50:37.086Z,96698.61
2019-02-02T22:53:06.849Z,96707.42
2019-02-02T22:55:36.483Z,96710.09
2019-02-02T22:58:06.174Z,96717.19
2019-02-02T23:01:04.428Z,96725.30
2019-02-02T23:03:37.148Z,96730.97
2019-02-02T23:06:39.274Z,96736.40
2019-02-02T23:09:47.947Z,96737.03
2019-02-02T23:12:30.984Z,96734.86
2019-02-02T23:15:21.456Z,96735.66
2019-02-02T23:17:50.884Z,96728.22
2019-02-02T23:20:20.273Z,96729.27
2019-02-02T23:22:49.683Z,96723.92
2019-02-02T23:25:19.110Z,96725.38
2019-02-02T23:27:48.505Z,96721.75
2019-02-02T23:30:18.516Z,96726.33
2019-02-02T23:32:47.956Z,96734.23
2019-02-02T23:35:17.396Z,96748.02
2019-02-02T23:37:46.999Z,96750.90
2019-02-02T23:40:16.460Z,96750.28
2019-02-02T23:42:46.284Z,96745.52
2019-02-02T23:45:15.799Z,96750.70
2019-02-02T23:47:45.222Z,96753.19
2019-02-02T23:50:14.602Z,96756.54
2019-02-02T23:52:44.143Z,96743.77
2019-02-02T23:55:13.845Z,96737.95
2019-02-02T23:57:43.458Z,96741.34
